FD25 weather

Fly In Ranches Airport
Vero Beach, Florida, United States

Public forecast

Using degrees Fahrenheit for public forecast. Weather courtesy of forecast.io.

Closest aviation weather report (METAR) to Fly In Ranches Airport

Closest report is Vero Beach Regional Airport, 7.1 nm (13.1 km) NE. Retrieved 2019/10/22 07:29 UTC (26 minutes ago):

KVRB 220729Z AUTO 00000KT 7SM FEW030 SCT039 BKN046 27/24 A3000 RMK AO2 RAE27 P0024 T02670244

Closest aviation forecast (TAF) to Fly In Ranches Airport

Closest forecast is Vero Beach Regional Airport, 7.1 nm (13.1 km) NE. Retrieved 2019/10/22 06:36 UTC (1 hour ago):

TAF KVRB 220534Z 2206/2306 19003KT P6SM BKN070 FM221400 21005KT P6SM FEW030 SCT250 FM221800 16010KT P6SM VCSH SCT035 BKN100 FM230000 23005KT P6SM SCT040 SCT120 BKN250